createdAt,value
2018-02-11T00:00:29.983Z,1000.74
2018-02-11T00:01:29.934Z,1000.73
2018-02-11T00:02:29.887Z,1000.73
2018-02-11T00:03:29.842Z,1000.69
2018-02-11T00:04:29.795Z,1000.76
2018-02-11T00:05:30.047Z,1000.61
2018-02-11T00:06:29.701Z,1000.66
2018-02-11T00:07:29.654Z,1000.63
2018-02-11T00:08:29.608Z,1000.59
2018-02-11T00:09:29.562Z,1000.53
2018-02-11T00:10:29.513Z,1000.56
2018-02-11T00:11:29.769Z,1000.53
2018-02-11T00:12:29.422Z,1000.48
2018-02-11T00:13:29.425Z,1000.53
2018-02-11T00:14:29.337Z,1000.49
2018-02-11T00:15:29.284Z,1000.42
2018-02-11T00:16:29.234Z,1000.45
2018-02-11T00:17:29.487Z,1000.44
2018-02-11T00:18:29.143Z,1000.40
2018-02-11T00:19:29.145Z,1000.50
2018-02-11T00:20:29.049Z,1000.36
2018-02-11T00:21:29.002Z,1000.38
2018-02-11T00:22:28.957Z,1000.30
2018-02-11T00:23:28.915Z,1000.30
2018-02-11T00:24:29.163Z,1000.28
2018-02-11T00:25:28.822Z,1000.22
2018-02-11T00:26:28.769Z,1000.28
2018-02-11T00:27:28.723Z,1000.29
2018-02-11T00:28:28.677Z,1000.25
2018-02-11T00:29:28.629Z,1000.23
2018-02-11T00:30:28.583Z,1000.27
2018-02-11T00:31:28.836Z,1000.20
2018-02-11T00:32:28.491Z,1000.24
2018-02-11T00:33:28.442Z,1000.14
2018-02-11T00:34:28.402Z,1000.20
2018-02-11T00:35:28.349Z,1000.12
2018-02-11T00:36:28.303Z,1000.10
2018-02-11T00:37:28.258Z,1000.07
2018-02-11T00:38:28.515Z,1000.12
2018-02-11T00:39:28.168Z,1000.13
2018-02-11T00:40:28.147Z,1000.07
2018-02-11T00:41:28.072Z,999.99
2018-02-11T00:42:28.025Z,999.93
2018-02-11T00:43:27.978Z,999.97
2018-02-11T00:44:27.932Z,1000.00
2018-02-11T00:45:28.184Z,999.99
2018-02-11T00:46:27.838Z,999.90
2018-02-11T00:47:27.793Z,1000.00
2018-02-11T00:48:27.743Z,999.87
2018-02-11T00:49:27.704Z,999.87
2018-02-11T00:50:27.699Z,999.93
2018-02-11T00:51:27.607Z,999.94
2018-02-11T00:52:27.861Z,999.91
2018-02-11T00:53:27.510Z,999.82
2018-02-11T00:54:27.471Z,999.82
2018-02-11T00:55:27.421Z,999.72
2018-02-11T00:56:27.371Z,999.74
2018-02-11T00:57:27.325Z,999.75
2018-02-11T00:58:27.579Z,999.83
2018-02-11T00:59:27.233Z,999.73
2018-02-11T01:00:27.186Z,999.74
2018-02-11T01:01:27.140Z,999.68
2018-02-11T01:02:27.094Z,999.67
2018-02-11T01:03:27.047Z,999.68
2018-02-11T01:04:27.301Z,999.68
2018-02-11T01:05:26.954Z,999.60
2018-02-11T01:06:26.911Z,999.52
2018-02-11T01:07:26.867Z,999.55
2018-02-11T01:08:26.820Z,999.60
2018-02-11T01:09:26.772Z,999.56
2018-02-11T01:10:27.026Z,999.57
2018-02-11T01:11:26.827Z,999.43
2018-02-11T01:12:26.629Z,999.45
2018-02-11T01:13:26.581Z,999.47
2018-02-11T01:14:26.536Z,999.39
2018-02-11T01:15:26.489Z,999.34
2018-02-11T01:16:26.743Z,999.31
2018-02-11T01:17:26.447Z,999.30
2018-02-11T01:18:26.354Z,999.29
2018-02-11T01:19:26.302Z,999.22
2018-02-11T01:20:26.257Z,999.20
2018-02-11T01:21:26.209Z,999.20
2018-02-11T01:22:26.465Z,999.22
2018-02-11T01:23:26.117Z,999.08
2018-02-11T01:24:26.071Z,999.07
2018-02-11T01:25:26.025Z,999.00
2018-02-11T01:26:25.981Z,999.01
2018-02-11T01:27:25.931Z,998.99
2018-02-11T01:28:25.886Z,998.97
2018-02-11T01:29:26.139Z,998.87
2018-02-11T01:30:25.797Z,998.83
2018-02-11T01:31:25.749Z,998.86
2018-02-11T01:32:25.701Z,998.73
2018-02-11T01:33:25.653Z,998.91
2018-02-11T01:34:25.604Z,998.76
2018-02-11T01:35:25.557Z,998.76
2018-02-11T01:36:25.813Z,998.69
2018-02-11T01:37:25.468Z,998.69
2018-02-11T01:38:25.417Z,998.75
2018-02-11T01:39:25.376Z,998.63
2018-02-11T01:40:25.326Z,998.62
2018-02-11T01:41:25.279Z,998.55
2018-02-11T01:42:25.232Z,998.59
2018-02-11T01:43:25.489Z,998.57
2018-02-11T01:44:25.142Z,998.56
2018-02-11T01:45:25.093Z,998.53
2018-02-11T01:46:25.047Z,998.56
2018-02-11T01:47:25.005Z,998.42
2018-02-11T01:48:24.953Z,998.54
2018-02-11T01:49:24.955Z,998.45
2018-02-11T01:50:25.169Z,998.45
2018-02-11T01:51:24.816Z,998.43
2018-02-11T01:52:24.766Z,998.33
2018-02-11T01:53:24.721Z,998.33
2018-02-11T01:54:24.673Z,998.30
2018-02-11T01:55:24.825Z,998.24
2018-02-11T01:56:24.580Z,998.21
2018-02-11T01:57:24.834Z,998.18
2018-02-11T01:58:24.487Z,998.12
2018-02-11T01:59:24.447Z,998.24
2018-02-11T02:00:24.395Z,998.18
2018-02-11T02:01:24.348Z,998.16
2018-02-11T02:02:24.307Z,998.07
2018-02-11T02:03:24.255Z,998.02
2018-02-11T02:04:24.510Z,998.13
2018-02-11T02:05:24.161Z,998.02
2018-02-11T02:06:24.116Z,998.04
2018-02-11T02:07:24.073Z,998.02
2018-02-11T02:08:24.022Z,998.07
2018-02-11T02:09:23.978Z,997.97
2018-02-11T02:10:24.234Z,997.93
2018-02-11T02:11:23.882Z,997.96
2018-02-11T02:12:23.838Z,997.93
2018-02-11T02:13:23.790Z,997.83
2018-02-11T02:14:23.747Z,997.89
2018-02-11T02:15:23.744Z,997.80
2018-02-11T02:16:23.953Z,997.80
2018-02-11T02:17:23.606Z,997.84
2018-02-11T02:18:23.556Z,997.83
2018-02-11T02:19:23.515Z,997.76
2018-02-11T02:20:23.461Z,997.69
2018-02-11T02:21:23.420Z,997.66
2018-02-11T02:22:23.670Z,997.69
2018-02-11T02:23:23.325Z,997.75
2018-02-11T02:24:23.278Z,997.53
2018-02-11T02:25:23.230Z,997.60
2018-02-11T02:26:23.234Z,997.53
2018-02-11T02:27:23.137Z,997.55
2018-02-11T02:28:23.394Z,997.52
2018-02-11T02:29:23.050Z,997.42
2018-02-11T02:30:22.998Z,997.40
2018-02-11T02:31:22.947Z,997.34
2018-02-11T02:32:22.902Z,997.35
2018-02-11T02:33:22.853Z,997.31
2018-02-11T02:34:23.106Z,997.22
2018-02-11T02:35:22.765Z,997.27
2018-02-11T02:36:22.713Z,997.24
2018-02-11T02:37:22.667Z,997.26
2018-02-11T02:38:22.667Z,997.21
2018-02-11T02:39:22.575Z,997.13
2018-02-11T02:40:22.523Z,997.10
2018-02-11T02:41:22.775Z,997.01
2018-02-11T02:42:22.432Z,997.01
2018-02-11T02:43:22.381Z,996.95
2018-02-11T02:44:22.336Z,996.93
2018-02-11T02:45:22.288Z,996.89
2018-02-11T02:46:22.239Z,996.84
2018-02-11T02:47:22.193Z,996.91
2018-02-11T02:48:22.446Z,996.72
2018-02-11T02:49:22.098Z,996.73
2018-02-11T02:50:22.054Z,996.77
2018-02-11T02:51:22.007Z,996.67
2018-02-11T02:52:21.958Z,996.61
2018-02-11T02:53:21.915Z,996.62
2018-02-11T02:54:21.864Z,996.57
2018-02-11T02:55:22.118Z,996.50
2018-02-11T02:56:21.770Z,996.52
2018-02-11T02:57:21.723Z,996.47
2018-02-11T02:58:21.676Z,996.35
2018-02-11T02:59:21.626Z,996.26
2018-02-11T03:00:21.579Z,996.40
2018-02-11T03:01:21.532Z,996.28
2018-02-11T03:02:21.786Z,996.26
2018-02-11T03:03:21.438Z,996.32
2018-02-11T03:04:21.398Z,996.26
2018-02-11T03:05:21.351Z,996.18
2018-02-11T03:06:21.296Z,996.07
2018-02-11T03:07:21.250Z,996.02
2018-02-11T03:08:21.207Z,996.04
2018-02-11T03:09:21.456Z,996.12
2018-02-11T03:10:21.108Z,995.81
2018-02-11T03:11:21.061Z,995.95
2018-02-11T03:12:21.017Z,995.88
2018-02-11T03:13:20.965Z,995.83
2018-02-11T03:14:20.920Z,995.85
2018-02-11T03:15:20.876Z,995.70
2018-02-11T03:16:21.124Z,995.93
2018-02-11T03:17:20.777Z,995.82
2018-02-11T03:18:20.731Z,995.71
2018-02-11T03:19:20.684Z,995.69
2018-02-11T03:20:20.634Z,995.61
2018-02-11T03:21:20.588Z,995.66
2018-02-11T03:22:20.844Z,995.57
2018-02-11T03:23:20.493Z,995.53
2018-02-11T03:24:20.445Z,995.42
2018-02-11T03:25:20.399Z,995.49
2018-02-11T03:26:20.358Z,995.53
2018-02-11T03:27:20.307Z,995.61
2018-02-11T03:28:20.557Z,995.43
2018-02-11T03:29:20.210Z,995.35
2018-02-11T03:30:20.161Z,995.20
2018-02-11T03:31:20.115Z,995.35
2018-02-11T03:32:20.117Z,995.19
2018-02-11T03:33:20.019Z,995.21
2018-02-11T03:34:20.274Z,995.34
2018-02-11T03:35:19.925Z,995.20
2018-02-11T03:36:19.875Z,995.14
2018-02-11T03:37:19.830Z,995.11
2018-02-11T03:38:19.793Z,994.94
2018-02-11T03:39:19.734Z,994.96
2018-02-11T03:40:19.986Z,994.91
2018-02-11T03:41:19.641Z,995.01
2018-02-11T03:42:19.595Z,995.07
2018-02-11T03:43:19.546Z,994.88
2018-02-11T03:44:19.500Z,994.73
2018-02-11T03:45:19.451Z,994.78
2018-02-11T03:46:19.840Z,994.82
2018-02-11T03:47:19.358Z,994.80
2018-02-11T03:48:19.308Z,994.69
2018-02-11T03:49:19.263Z,994.71
2018-02-11T03:50:19.216Z,994.69
2018-02-11T03:51:19.170Z,994.69
2018-02-11T03:52:19.122Z,994.64
2018-02-11T03:53:19.375Z,994.60
2018-02-11T03:54:19.026Z,994.53
2018-02-11T03:55:18.978Z,994.61
2018-02-11T03:56:18.930Z,994.48
2018-02-11T03:57:18.886Z,994.50
2018-02-11T03:58:18.836Z,994.51
2018-02-11T03:59:18.797Z,994.43
2018-02-11T04:00:19.041Z,994.39
2018-02-11T04:01:18.694Z,994.47
2018-02-11T04:02:18.647Z,994.61
2018-02-11T04:04:18.550Z,994.47
2018-02-11T04:05:18.507Z,994.37
2018-02-11T04:06:18.460Z,994.41
2018-02-11T04:07:18.763Z,994.40
2018-02-11T04:08:18.363Z,994.38
2018-02-11T04:09:18.317Z,994.48
2018-02-11T04:10:18.270Z,994.45
2018-02-11T04:11:18.221Z,994.38
2018-02-11T04:12:18.174Z,994.27
2018-02-11T04:13:18.128Z,994.16
2018-02-11T04:14:18.378Z,994.09
2018-02-11T04:15:18.031Z,994.22
2018-02-11T04:16:17.992Z,994.22
2018-02-11T04:17:17.936Z,994.27
2018-02-11T04:18:17.891Z,994.29
2018-02-11T04:19:17.843Z,994.22
2018-02-11T04:20:17.793Z,994.20
2018-02-11T04:21:18.048Z,993.92
2018-02-11T04:22:17.698Z,993.87
2018-02-11T04:23:17.651Z,993.91
2018-02-11T04:24:17.604Z,993.93
2018-02-11T04:25:17.605Z,994.02
2018-02-11T04:26:17.510Z,993.86
2018-02-11T04:27:17.763Z,993.92
2018-02-11T04:28:17.413Z,994.05
2018-02-11T04:29:17.365Z,994.07
2018-02-11T04:30:17.318Z,993.94
2018-02-11T04:31:17.275Z,993.90
2018-02-11T04:32:17.223Z,993.91
2018-02-11T04:33:17.476Z,993.71
2018-02-11T04:34:17.128Z,993.79
2018-02-11T04:35:17.080Z,993.82
2018-02-11T04:36:17.036Z,993.88
2018-02-11T04:37:16.985Z,993.84
2018-02-11T04:38:16.938Z,993.78
2018-02-11T04:39:17.190Z,993.68
2018-02-11T04:40:16.842Z,993.66
2018-02-11T04:41:16.795Z,993.62
2018-02-11T04:42:16.748Z,993.59
2018-02-11T04:43:16.703Z,993.70
2018-02-11T04:44:16.704Z,993.60
2018-02-11T04:45:16.905Z,993.61
2018-02-11T04:46:16.556Z,993.55
2018-02-11T04:47:16.513Z,993.54
2018-02-11T04:48:16.467Z,993.43
2018-02-11T04:49:16.421Z,993.50
2018-02-11T04:50:16.419Z,993.54
2018-02-11T04:51:16.619Z,993.51
2018-02-11T04:52:16.273Z,993.39
2018-02-11T04:53:16.226Z,993.22
2018-02-11T04:54:16.206Z,993.36
2018-02-11T04:55:16.128Z,993.40
2018-02-11T04:56:16.083Z,993.42
2018-02-11T04:57:16.333Z,993.29
2018-02-11T04:58:15.986Z,993.24
2018-02-11T04:59:15.936Z,993.24
2018-02-11T05:00:15.895Z,993.13
2018-02-11T05:01:15.843Z,993.20
2018-02-11T05:02:15.794Z,993.22
2018-02-11T05:03:15.745Z,993.32
2018-02-11T05:04:16.003Z,993.09
2018-02-11T05:05:15.650Z,993.08
2018-02-11T05:06:15.600Z,993.05
2018-02-11T05:07:15.554Z,992.99
2018-02-11T05:08:15.505Z,993.00
2018-02-11T05:09:15.457Z,992.86
2018-02-11T05:10:15.414Z,992.83
2018-02-11T05:11:15.662Z,992.80
2018-02-11T05:12:15.364Z,992.81
2018-02-11T05:13:15.266Z,992.79
2018-02-11T05:14:15.220Z,992.82
2018-02-11T05:15:15.170Z,992.80
2018-02-11T05:16:15.128Z,992.71
2018-02-11T05:17:15.074Z,992.83
2018-02-11T05:18:15.328Z,992.69
2018-02-11T05:19:14.978Z,992.75
2018-02-11T05:20:14.932Z,992.64
2018-02-11T05:21:14.883Z,992.61
2018-02-11T05:22:14.836Z,992.52
2018-02-11T05:23:14.788Z,992.61
2018-02-11T05:24:14.740Z,992.55
2018-02-11T05:25:14.992Z,992.58
2018-02-11T05:26:14.643Z,992.57
2018-02-11T05:27:14.598Z,992.55
2018-02-11T05:28:14.550Z,992.58
2018-02-11T05:29:14.553Z,992.46
2018-02-11T05:30:14.456Z,992.44
2018-02-11T05:31:14.407Z,992.43
2018-02-11T05:32:14.664Z,992.60
2018-02-11T05:33:14.310Z,992.42
2018-02-11T05:34:14.263Z,992.34
2018-02-11T05:35:14.268Z,992.36
2018-02-11T05:36:14.167Z,992.40
2018-02-11T05:37:14.121Z,992.37
2018-02-11T05:38:14.373Z,992.33
2018-02-11T05:39:14.031Z,992.31
2018-02-11T05:40:13.978Z,992.32
2018-02-11T05:41:13.980Z,992.24
2018-02-11T05:42:13.883Z,992.36
2018-02-11T05:43:13.834Z,992.28
2018-02-11T05:44:14.089Z,992.24
2018-02-11T05:45:13.740Z,992.34
2018-02-11T05:46:13.693Z,992.15
2018-02-11T05:47:13.695Z,992.20
2018-02-11T05:48:13.596Z,992.27
2018-02-11T05:49:13.550Z,992.22
2018-02-11T05:50:13.805Z,992.21
2018-02-11T05:51:13.455Z,992.21
2018-02-11T05:52:13.405Z,992.22
2018-02-11T05:53:13.408Z,992.11
2018-02-11T05:54:13.312Z,992.16
2018-02-11T05:55:13.263Z,992.05
2018-02-11T05:56:13.519Z,992.17
2018-02-11T05:57:13.168Z,992.10
2018-02-11T05:58:13.121Z,992.11
2018-02-11T05:59:13.074Z,992.09
2018-02-11T06:00:13.025Z,992.09
2018-02-11T06:01:12.995Z,992.03
2018-02-11T06:02:13.232Z,992.04
2018-02-11T06:03:12.889Z,992.04
2018-02-11T06:04:12.834Z,992.03
2018-02-11T06:05:12.788Z,991.92
2018-02-11T06:06:12.738Z,991.96
2018-02-11T06:07:12.693Z,991.92
2018-02-11T06:08:12.643Z,991.85
2018-02-11T06:09:12.896Z,991.84
2018-02-11T06:10:12.548Z,991.74
2018-02-11T06:11:12.508Z,991.72
2018-02-11T06:12:12.454Z,991.71
2018-02-11T06:13:12.405Z,991.71
2018-02-11T06:14:12.358Z,991.74
2018-02-11T06:15:12.311Z,991.70
2018-02-11T06:16:12.563Z,991.57
2018-02-11T06:17:12.214Z,991.67
2018-02-11T06:18:12.167Z,991.57
2018-02-11T06:19:12.119Z,991.64
2018-02-11T06:20:12.073Z,991.61
2018-02-11T06:21:12.027Z,991.56
2018-02-11T06:22:11.974Z,991.64
2018-02-11T06:23:12.229Z,991.48
2018-02-11T06:24:11.881Z,991.61
2018-02-11T06:25:11.833Z,991.55
2018-02-11T06:26:11.782Z,991.51
2018-02-11T06:27:11.754Z,991.52
2018-02-11T06:28:11.688Z,991.49
2018-02-11T06:29:11.704Z,991.43
2018-02-11T06:30:11.897Z,991.52
2018-02-11T06:31:11.544Z,991.52
2018-02-11T06:32:11.499Z,991.45
2018-02-11T06:33:11.448Z,991.59
2018-02-11T06:34:11.403Z,991.47
2018-02-11T06:35:11.408Z,991.40
2018-02-11T06:36:11.307Z,991.39
2018-02-11T06:37:11.558Z,991.49
2018-02-11T06:38:11.229Z,991.42
2018-02-11T06:39:11.163Z,991.51
2018-02-11T06:40:11.116Z,991.49
2018-02-11T06:41:11.073Z,991.53
2018-02-11T06:42:11.026Z,991.40
2018-02-11T06:43:10.980Z,991.51
2018-02-11T06:44:11.225Z,991.57
2018-02-11T06:45:10.879Z,991.56
2018-02-11T06:46:10.831Z,991.63
2018-02-11T06:47:10.786Z,991.57
2018-02-11T06:48:10.735Z,991.54
2018-02-11T06:49:10.688Z,991.46
2018-02-11T06:50:10.941Z,991.47
2018-02-11T06:51:10.643Z,991.55
2018-02-11T06:52:10.550Z,991.52
2018-02-11T06:53:10.498Z,991.49
2018-02-11T06:54:10.452Z,991.60
2018-02-11T06:55:10.404Z,991.43
2018-02-11T06:56:10.656Z,991.49
2018-02-11T06:57:10.359Z,991.54
2018-02-11T06:58:10.635Z,991.43
2018-02-11T06:59:10.214Z,991.48
2018-02-11T07:00:11.940Z,991.55
2018-02-11T07:01:11.400Z,991.61
2018-02-11T07:02:11.784Z,991.50
2018-02-11T07:03:10.781Z,991.51
2018-02-11T07:04:11.346Z,991.56
2018-02-11T07:05:09.929Z,991.56
2018-02-11T07:06:09.879Z,991.52
2018-02-11T07:07:09.834Z,991.51
2018-02-11T07:08:10.085Z,991.58
2018-02-11T07:09:09.742Z,991.48
2018-02-11T07:10:09.692Z,991.26
2018-02-11T07:11:09.645Z,991.48
2018-02-11T07:12:09.597Z,991.54
2018-02-11T07:13:09.548Z,991.51
2018-02-11T07:14:09.852Z,991.51
2018-02-11T07:15:09.454Z,991.50
2018-02-11T07:16:09.405Z,991.61
2018-02-11T07:17:09.358Z,991.48
2018-02-11T07:18:09.312Z,991.56
2018-02-11T07:19:09.265Z,991.54
2018-02-11T07:20:09.517Z,991.48
2018-02-11T07:21:09.469Z,991.38
2018-02-11T07:22:09.121Z,991.40
2018-02-11T07:23:09.077Z,991.43
2018-02-11T07:24:09.026Z,991.40
2018-02-11T07:25:08.998Z,991.64
2018-02-11T07:26:08.983Z,991.57
2018-02-11T07:27:08.884Z,991.60
2018-02-11T07:28:09.135Z,991.54
2018-02-11T07:29:08.788Z,991.44
2018-02-11T07:30:08.741Z,991.50
2018-02-11T07:31:08.695Z,991.50
2018-02-11T07:32:08.646Z,991.45
2018-02-11T07:33:08.599Z,991.60
2018-02-11T07:34:08.552Z,991.65
2018-02-11T07:35:08.804Z,991.53
2018-02-11T07:36:08.457Z,991.60
2018-02-11T07:37:08.407Z,991.55
2018-02-11T07:38:08.373Z,991.60
2018-02-11T07:39:08.397Z,991.59
2018-02-11T07:40:08.272Z,991.60
2018-02-11T07:41:08.220Z,991.58
2018-02-11T07:42:08.477Z,991.55
2018-02-11T07:43:08.131Z,991.62
2018-02-11T07:44:08.081Z,991.68
2018-02-11T07:45:08.042Z,991.52
2018-02-11T07:46:07.984Z,991.57
2018-02-11T07:47:07.938Z,991.48
2018-02-11T07:48:07.892Z,991.55
2018-02-11T07:49:08.143Z,991.50
2018-02-11T07:50:07.794Z,991.60
2018-02-11T07:51:07.748Z,991.50
2018-02-11T07:52:07.766Z,991.56
2018-02-11T07:53:07.655Z,991.51
2018-02-11T07:54:07.701Z,991.52
2018-02-11T07:55:07.630Z,991.55
2018-02-11T07:56:07.916Z,991.48
2018-02-11T07:57:07.542Z,991.47
2018-02-11T07:58:07.585Z,991.58
2018-02-11T07:59:07.443Z,991.48
2018-02-11T08:00:07.387Z,991.47
2018-02-11T08:01:07.396Z,991.50
2018-02-11T08:02:07.530Z,991.49
2018-02-11T08:03:07.182Z,991.56
2018-02-11T08:04:07.138Z,991.61
2018-02-11T08:05:07.090Z,991.54
2018-02-11T08:06:07.043Z,991.60
2018-02-11T08:07:06.997Z,991.60
2018-02-11T08:08:07.254Z,991.49
2018-02-11T08:09:06.900Z,991.46
2018-02-11T08:10:06.854Z,991.43
2018-02-11T08:11:06.848Z,991.58
2018-02-11T08:12:06.763Z,991.54
2018-02-11T08:13:06.713Z,991.60
2018-02-11T08:14:06.998Z,991.46
2018-02-11T08:15:06.621Z,991.53
2018-02-11T08:16:06.571Z,991.53
2018-02-11T08:17:06.524Z,991.54
2018-02-11T08:18:06.478Z,991.60
2018-02-11T08:19:06.432Z,991.50
2018-02-11T08:20:06.685Z,991.69
2018-02-11T08:21:06.339Z,991.45
2018-02-11T08:22:06.294Z,991.58
2018-02-11T08:23:06.246Z,991.52
2018-02-11T08:24:06.200Z,991.64
2018-02-11T08:25:06.150Z,991.89
2018-02-11T08:26:06.405Z,991.55
2018-02-11T08:27:06.059Z,991.58
2018-02-11T08:28:06.011Z,991.68
2018-02-11T08:29:05.963Z,991.58
2018-02-11T08:30:05.927Z,991.55
2018-02-11T08:31:05.874Z,991.57
2018-02-11T08:32:05.875Z,991.50
2018-02-11T08:33:06.080Z,991.56
2018-02-11T08:34:05.730Z,991.57
2018-02-11T08:35:05.703Z,991.65
2018-02-11T08:36:05.639Z,991.63
2018-02-11T08:37:05.595Z,991.58
2018-02-11T08:38:05.598Z,991.61
2018-02-11T08:39:05.499Z,991.52
2018-02-11T08:40:05.754Z,991.51
2018-02-11T08:41:05.405Z,991.53
2018-02-11T08:42:05.359Z,991.56
2018-02-11T08:43:05.316Z,991.54
2018-02-11T08:44:05.319Z,991.55
2018-02-11T08:45:05.220Z,991.64
2018-02-11T08:46:05.173Z,991.69
2018-02-11T08:47:05.425Z,991.67
2018-02-11T08:48:05.079Z,991.70
2018-02-11T08:49:05.033Z,991.67
2018-02-11T08:50:04.986Z,991.66
2018-02-11T08:51:04.940Z,991.61
2018-02-11T08:52:04.899Z,991.63
2018-02-11T08:53:04.850Z,991.59
2018-02-11T08:54:05.104Z,991.44
2018-02-11T08:55:04.758Z,991.63
2018-02-11T08:56:04.708Z,991.61
2018-02-11T08:57:04.666Z,991.60
2018-02-11T08:58:04.614Z,991.63
2018-02-11T08:59:04.568Z,991.58
2018-02-11T09:00:04.574Z,991.52
2018-02-11T09:01:04.774Z,991.56
2018-02-11T09:02:04.430Z,991.55
2018-02-11T09:03:04.382Z,991.55
2018-02-11T09:04:04.359Z,991.45
2018-02-11T09:05:04.294Z,991.42
2018-02-11T09:06:04.291Z,991.53
2018-02-11T09:08:04.452Z,991.52
2018-02-11T09:09:04.103Z,991.44
2018-02-11T09:10:04.056Z,991.56
2018-02-11T09:12:03.964Z,991.50
2018-02-11T09:13:03.923Z,991.54
2018-02-11T09:14:04.178Z,991.46
2018-02-11T09:15:03.827Z,991.57
2018-02-11T09:16:03.780Z,991.54
2018-02-11T09:17:03.734Z,991.45
2018-02-11T09:18:03.687Z,991.48
2018-02-11T09:19:03.642Z,991.50
2018-02-11T09:20:03.895Z,991.55
2018-02-11T09:21:03.558Z,991.53
2018-02-11T09:22:03.500Z,991.61
2018-02-11T09:23:03.454Z,991.56
2018-02-11T09:24:03.408Z,991.49
2018-02-11T09:25:03.367Z,991.53
2018-02-11T09:26:03.615Z,991.65
2018-02-11T09:27:03.270Z,991.62
2018-02-11T09:28:03.224Z,991.58
2018-02-11T09:29:03.177Z,991.60
2018-02-11T09:30:03.135Z,991.49
2018-02-11T09:31:03.086Z,991.53
2018-02-11T09:32:03.345Z,991.59
2018-02-11T09:33:02.999Z,991.55
2018-02-11T09:34:02.949Z,991.54
2018-02-11T09:35:02.903Z,991.53
2018-02-11T09:36:02.857Z,991.48
2018-02-11T09:37:02.808Z,991.63
2018-02-11T09:38:02.763Z,991.47
2018-02-11T09:39:03.018Z,991.46
2018-02-11T09:40:02.671Z,991.51
2018-02-11T09:41:02.679Z,991.55
2018-02-11T09:42:02.580Z,991.40
2018-02-11T09:43:02.553Z,991.50
2018-02-11T09:44:02.493Z,991.50
2018-02-11T09:45:02.492Z,991.52
2018-02-11T09:46:02.696Z,991.51
2018-02-11T09:47:02.348Z,991.41
2018-02-11T09:48:02.301Z,991.57
2018-02-11T09:49:02.261Z,991.49
2018-02-11T09:50:02.210Z,991.49
2018-02-11T09:51:02.172Z,991.49
2018-02-11T09:52:02.126Z,991.50
2018-02-11T09:53:02.374Z,991.45
2018-02-11T09:54:02.029Z,991.60
2018-02-11T09:55:01.982Z,991.57
2018-02-11T09:56:01.941Z,991.54
2018-02-11T09:57:01.889Z,991.50
2018-02-11T09:58:01.844Z,991.59
2018-02-11T09:59:01.797Z,991.58
2018-02-11T10:00:02.053Z,991.60
2018-02-11T10:01:01.711Z,991.61
2018-02-11T10:02:01.659Z,991.56
2018-02-11T10:03:01.688Z,991.58
2018-02-11T10:04:01.567Z,991.55
2018-02-11T10:05:01.523Z,991.60
2018-02-11T10:06:01.474Z,991.59
2018-02-11T10:07:01.729Z,991.51
2018-02-11T10:08:01.382Z,991.51
2018-02-11T10:09:01.387Z,991.50
2018-02-11T10:10:01.294Z,991.42
2018-02-11T10:11:01.256Z,991.55
2018-02-11T10:12:01.200Z,991.50
2018-02-11T10:13:01.159Z,991.48
2018-02-11T10:14:01.407Z,991.43
2018-02-11T10:15:01.062Z,991.45
2018-02-11T10:16:01.018Z,991.44
2018-02-11T10:17:00.970Z,991.46
2018-02-11T10:18:00.927Z,991.51
2018-02-11T10:19:00.884Z,991.53
2018-02-11T10:20:01.137Z,991.55
2018-02-11T10:21:00.788Z,991.64
2018-02-11T10:22:00.743Z,991.53
2018-02-11T10:23:00.698Z,991.53
2018-02-11T10:24:01.259Z,991.52
2018-02-11T10:25:00.606Z,991.40
2018-02-11T10:26:00.872Z,991.40
2018-02-11T10:27:00.516Z,991.44
2018-02-11T10:28:00.520Z,991.61
2018-02-11T10:29:00.434Z,991.60
2018-02-11T10:30:00.376Z,991.68
2018-02-11T10:31:00.389Z,991.69
2018-02-11T10:32:00.590Z,991.70
2018-02-11T10:33:00.258Z,991.69
2018-02-11T10:34:00.199Z,991.63
2018-02-11T10:35:00.149Z,991.63
2018-02-11T10:36:00.109Z,991.61
2018-02-11T10:37:00.062Z,991.59
2018-02-11T10:38:00.318Z,991.70
2018-02-11T10:38:59.969Z,991.65
2018-02-11T10:39:59.977Z,991.61
2018-02-11T10:40:59.876Z,991.59
2018-02-11T10:41:59.848Z,991.65
2018-02-11T10:42:59.793Z,991.67
2018-02-11T10:44:00.044Z,991.68
2018-02-11T10:44:59.697Z,991.67
2018-02-11T10:45:59.709Z,991.68
2018-02-11T10:46:59.608Z,991.61
2018-02-11T10:47:59.561Z,991.65
2018-02-11T10:48:59.517Z,991.61
2018-02-11T10:49:59.473Z,991.70
2018-02-11T10:50:59.781Z,991.66
2018-02-11T10:51:59.387Z,991.73
2018-02-11T10:52:59.336Z,991.73
2018-02-11T10:53:59.293Z,991.70
2018-02-11T10:54:59.254Z,991.69
2018-02-11T10:55:59.203Z,991.66
2018-02-11T10:56:59.257Z,991.79
2018-02-11T10:57:59.411Z,991.78
2018-02-11T10:58:59.067Z,991.76
2018-02-11T10:59:59.021Z,991.78
2018-02-11T11:00:58.975Z,991.76
2018-02-11T11:01:58.938Z,991.76
2018-02-11T11:02:58.889Z,991.74
2018-02-11T11:03:58.843Z,991.83
2018-02-11T11:04:59.099Z,991.71
2018-02-11T11:05:58.757Z,991.74
2018-02-11T11:06:58.710Z,991.76
2018-02-11T11:07:58.669Z,991.73
2018-02-11T11:08:58.627Z,991.69
2018-02-11T11:09:58.585Z,991.71
2018-02-11T11:10:58.534Z,991.74
2018-02-11T11:11:58.788Z,991.74
2018-02-11T11:12:58.493Z,991.69
2018-02-11T11:13:58.408Z,991.64
2018-02-11T11:14:58.361Z,991.70
2018-02-11T11:15:58.315Z,991.77
2018-02-11T11:16:58.272Z,991.76
2018-02-11T11:17:58.226Z,991.70
2018-02-11T11:18:58.482Z,991.70
2018-02-11T11:19:58.136Z,991.69
2018-02-11T11:20:58.112Z,991.69
2018-02-11T11:21:58.046Z,991.70
2018-02-11T11:22:58.006Z,991.64
2018-02-11T11:23:57.964Z,991.69
2018-02-11T11:24:57.915Z,991.63
2018-02-11T11:25:58.176Z,991.69
2018-02-11T11:26:57.834Z,991.73
2018-02-11T11:27:57.787Z,991.67
2018-02-11T11:28:57.738Z,991.69
2018-02-11T11:29:57.746Z,991.69
2018-02-11T11:30:57.649Z,991.67
2018-02-11T11:31:57.907Z,991.75
2018-02-11T11:32:57.562Z,991.78
2018-02-11T11:33:57.516Z,991.74
2018-02-11T11:34:57.480Z,991.72
2018-02-11T11:35:57.432Z,991.68
2018-02-11T11:36:57.386Z,991.73
2018-02-11T11:37:57.641Z,991.74
2018-02-11T11:38:57.297Z,991.83
2018-02-11T11:39:57.253Z,991.72
2018-02-11T11:40:57.207Z,991.72
2018-02-11T11:41:57.165Z,991.74
2018-02-11T11:42:57.121Z,991.78
2018-02-11T11:43:57.375Z,991.81
2018-02-11T11:44:57.033Z,991.85
2018-02-11T11:45:56.992Z,991.85
2018-02-11T11:46:56.944Z,991.85
2018-02-11T11:47:56.900Z,991.91
2018-02-11T11:48:56.864Z,991.95
2018-02-11T11:49:57.109Z,991.90
2018-02-11T11:50:56.765Z,991.80
2018-02-11T11:51:56.734Z,991.83
2018-02-11T11:52:56.674Z,991.88
2018-02-11T11:53:56.631Z,991.93
2018-02-11T11:54:56.585Z,991.89
2018-02-11T11:55:56.854Z,991.89
2018-02-11T11:56:56.551Z,991.85
2018-02-11T11:57:56.451Z,991.77
2018-02-11T11:58:56.408Z,991.93
2018-02-11T11:59:56.362Z,991.77
2018-02-11T12:00:56.315Z,991.84
2018-02-11T12:01:56.277Z,991.84
2018-02-11T12:02:56.526Z,991.82
2018-02-11T12:03:56.181Z,991.90
2018-02-11T12:04:56.137Z,991.84
2018-02-11T12:05:56.091Z,991.84
2018-02-11T12:06:56.045Z,991.80
2018-02-11T12:07:55.999Z,991.83
2018-02-11T12:08:55.955Z,991.86
2018-02-11T12:09:56.211Z,991.83
2018-02-11T12:10:55.868Z,991.86
2018-02-11T12:11:55.822Z,991.81
2018-02-11T12:12:55.776Z,991.84
2018-02-11T12:13:55.746Z,991.84
2018-02-11T12:14:56.023Z,991.81
2018-02-11T12:15:55.651Z,991.84
2018-02-11T12:16:55.903Z,991.79
2018-02-11T12:17:55.602Z,991.84
2018-02-11T12:18:55.511Z,991.85
2018-02-11T12:19:55.465Z,991.86
2018-02-11T12:20:55.423Z,991.92
2018-02-11T12:21:55.374Z,991.91
2018-02-11T12:22:55.329Z,991.94
2018-02-11T12:23:55.584Z,991.93
2018-02-11T12:24:55.244Z,991.98
2018-02-11T12:25:55.204Z,991.91
2018-02-11T12:26:55.157Z,991.89
2018-02-11T12:27:55.108Z,991.83
2018-02-11T12:28:55.062Z,991.82
2018-02-11T12:29:55.071Z,991.86